createdAt,value
2022-11-16T00:07:37.425Z,987.68
2022-11-16T00:22:39.337Z,987.66
2022-11-16T00:37:41.225Z,987.76
2022-11-16T00:52:43.083Z,987.89
2022-11-16T01:07:45.065Z,987.92
2022-11-16T01:22:46.916Z,987.99
2022-11-16T01:37:48.788Z,988.01
2022-11-16T01:52:50.661Z,988.08
2022-11-16T02:07:52.514Z,988.27
2022-11-16T02:22:54.529Z,988.4
2022-11-16T02:37:56.385Z,988.58
2022-11-16T02:52:58.204Z,988.65
2022-11-16T03:08:00.066Z,988.7
2022-11-16T03:23:01.960Z,988.88
2022-11-16T03:38:03.837Z,988.97
2022-11-16T03:53:05.720Z,988.96
2022-11-16T04:08:07.576Z,989.08
2022-11-16T04:23:09.426Z,989.18
2022-11-16T04:38:11.295Z,989.29
2022-11-16T04:53:13.157Z,989.48
2022-11-16T05:08:15.074Z,989.48
2022-11-16T05:23:17.206Z,989.42
2022-11-16T05:38:20.536Z,989.49
2022-11-16T05:53:23.112Z,989.43
2022-11-16T06:08:25.650Z,989.51
2022-11-16T06:23:28.200Z,989.46
2022-11-16T06:38:30.892Z,989.49
2022-11-16T06:53:34.767Z,989.6
2022-11-16T07:08:39.312Z,989.54
2022-11-16T07:23:41.770Z,989.54
2022-11-16T07:38:44.152Z,989.74
2022-11-16T07:53:46.612Z,989.52
2022-11-16T08:08:51.314Z,989.53
2022-11-16T08:23:58.744Z,989.79
2022-11-16T08:39:00.880Z,989.59
2022-11-16T08:54:02.758Z,989.35
2022-11-16T09:09:04.607Z,989.3
2022-11-16T09:24:06.442Z,989.39
2022-11-16T09:39:31.626Z,989.27
2022-11-16T09:54:34.001Z,989.25
2022-11-16T10:09:35.854Z,989.09
2022-11-16T10:24:37.643Z,988.96
2022-11-16T10:39:39.651Z,988.96
2022-11-16T10:54:44.258Z,988.8
2022-11-16T11:09:46.499Z,988.6
2022-11-16T11:24:48.355Z,988.62
2022-11-16T11:39:50.241Z,988.59
2022-11-16T11:54:52.373Z,988.53
2022-11-16T12:09:54.202Z,988.33
2022-11-16T12:24:56.003Z,988.38
2022-11-16T12:39:57.794Z,988.43
2022-11-16T12:55:24.808Z,988.46
2022-11-16T13:10:28.068Z,988.45
2022-11-16T13:25:30.027Z,988.26
2022-11-16T13:40:31.858Z,988.14
2022-11-16T13:55:33.741Z,988.09
2022-11-16T14:10:35.636Z,987.96
2022-11-16T14:25:37.492Z,987.84
2022-11-16T14:40:39.317Z,987.91
2022-11-16T14:55:41.151Z,987.87
2022-11-16T15:10:43.008Z,987.85
2022-11-16T15:25:44.850Z,987.9
2022-11-16T15:40:46.747Z,987.92
2022-11-16T15:55:48.760Z,987.99
2022-11-16T16:10:50.647Z,987.93
2022-11-16T16:25:52.509Z,988
2022-11-16T16:40:54.374Z,988.08
2022-11-16T16:55:56.975Z,988.17
2022-11-16T17:10:59.971Z,988.07
2022-11-16T17:26:03.254Z,987.86
2022-11-16T17:41:05.812Z,987.89
2022-11-16T17:56:08.762Z,987.84
2022-11-16T18:11:10.698Z,987.79
2022-11-16T18:26:12.596Z,987.63
2022-11-16T18:41:14.533Z,987.43
2022-11-16T18:56:16.400Z,987.18
2022-11-16T19:11:18.294Z,987.14
2022-11-16T19:26:20.272Z,986.83
2022-11-16T19:41:22.077Z,986.65
2022-11-16T19:56:23.900Z,986.58
2022-11-16T20:11:25.722Z,986.35
2022-11-16T20:26:27.558Z,986.22
2022-11-16T20:41:29.457Z,986.25
2022-11-16T20:56:31.295Z,986.25
2022-11-16T21:11:33.153Z,986.01
2022-11-16T21:26:35.056Z,985.87
2022-11-16T21:41:36.915Z,985.71
2022-11-16T21:56:38.790Z,985.6
2022-11-16T22:11:40.694Z,985.56
2022-11-16T22:26:42.574Z,985.49
2022-11-16T22:41:44.358Z,985.47
2022-11-16T22:56:46.204Z,985.53
2022-11-16T23:11:48.078Z,985.42
2022-11-16T23:26:49.918Z,985.47
2022-11-16T23:41:51.769Z,985.42
2022-11-16T23:56:53.586Z,985.41
